Mississippi Star — 9HA2441 — position and weather

sailwx.info

Track history (hours):
 
Tides and Currents Weather Stations Pressure Air Temp Water Temp Dewpoint Dewpoint Depression Visibility Wind Speed Wind Dir Waves Ship Positions

Mississippi Star

Last reported at 2016-May-25 14:25 UTC. Time now 2016-May-25 14:54 UTC.
Position N 52°27' E 004°02'.

Length 128 m; draft 6 m.

Type: Ship. MMSI: 248621000.

Date/timePositionNaut miles runAvg speedWind from/ knotsBaromVisibWave heightAir tempDewpointWater temp
2016-May-25 14:25N 52°27' E 004°02'0 0.1
2016-May-25 13:23N 52°27' E 004°02'8 9.7
2016-May-25 12:32N 52°26' E 003°48'7612.1
2016-May-25 06:17N 51°33' E 002°20'1013.6
2016-May-25 05:33N 51°26' E 002°09'1313.1
2016-May-25 04:33N 51°14' E 002°02'1414.2
2016-May-25 03:34N 51°06' E 001°42'1514.5
2016-May-25 02:34N 50°55' E 001°28'1514.8
2016-May-25 01:32N 50°41' E 001°18'1514.1
2016-May-25 00:29N 50°31' E 001°01'2914.1
2016-May-24 22:25N 50°23' E 000°17'1214.6
2016-May-24 21:33N 50°19' W 000°02'3114.0
2016-May-24 19:21N 50°11' W 000°49'8110.3
2016-May-24 11:30N 49°49' W 002°50'1311.2
2016-May-24 10:22N 49°44' W 003°08'1011.9
2016-May-24 09:33N 49°39' W 003°21'2512.7
2016-May-24 07:33N 49°27' W 003°55'4113.6
2016-May-24 04:31N 49°06' W 004°50'1312.9
2016-May-24 03:30N 48°59' W 005°07'1212.4
2016-May-24 02:33N 48°53' W 005°22'1211.8
2016-May-24 01:33N 48°46' W 005°36'  
2016-May-21 17:33N 39°12' W 009°50'1111.3
2016-May-21 16:33N 39°01' W 009°51'1211.6
2016-May-21 15:33N 38°49' W 009°50'1211.7
2016-May-21 14:34N 38°37' W 009°49'1211.5
2016-May-21 13:33N 38°26' W 009°45'1111.3
2016-May-21 12:33N 38°15' W 009°41'1111.3
2016-May-21 11:33N 38°04' W 009°39'1111.3
2016-May-21 10:33N 37°53' W 009°36'1111.2
2016-May-21 09:33N 37°42' W 009°33'3811.2
2016-May-21 06:11N 37°05' W 009°22'1011.0
2016-May-21 05:16N 36°55' W 009°20'810.9
2016-May-21 04:33N 36°49' W 009°14'1610.8
2016-May-21 03:04N 36°43' W 008°55'101 4.5
2016-May-20 04:31N 37°10' W 006°54'0 0.0
2016-May-20 03:31N 37°10' W 006°54'0 0.0
2016-May-20 02:31N 37°10' W 006°54'0 0.0
2016-May-20 01:25N 37°10' W 006°54'92 7.5
2016-May-19 13:07N 36°25' W 008°34'9910.3
2016-May-19 03:32N 37°44' W 009°49'1211.8
2016-May-19 02:33N 37°55' W 009°53'1211.8
2016-May-19 01:33N 38°07' W 009°56'1211.8
2016-May-19 00:33N 38°18' W 009°60'1211.9
2016-May-18 23:33N 38°30' W 010°03'1212.2
2016-May-18 22:33N 38°42' W 010°06'1211.9
2016-May-18 21:33N 38°54' W 010°07'1212.0
2016-May-18 20:33N 39°06' W 010°07'1212.3
2016-May-18 19:33N 39°18' W 010°07'6112.1
2016-May-18 14:30N 40°19' W 010°07'56911.4
2016-May-16 12:28N 49°08' W 005°10'1210.8
2016-May-16 11:24N 49°13' W 004°55'2211.4
2016-May-16 09:30N 49°24' W 004°26'1312.0
2016-May-16 08:24N 49°31' W 004°09'1412.2
2016-May-16 07:18N 49°38' W 003°51'912.2
2016-May-16 06:33N 49°42' W 003°39'1211.8
2016-May-16 05:33N 49°48' W 003°23'1111.2
2016-May-16 04:33N 49°54' W 003°08'1110.8
2016-May-16 03:33N 49°59' W 002°54'4611.1
2016-May-15 23:24N 50°12' W 001°44'1313.0
2016-May-15 22:26N 50°15' W 001°25'1213.5
2016-May-15 21:33N 50°18' W 001°08'1313.3
2016-May-15 20:33N 50°22' W 000°47'1212.3
2016-May-15 19:33N 50°25' W 000°29'1211.5
2016-May-15 18:33N 50°28' W 000°11'1110.8
2016-May-15 17:33N 50°31' E 000°05'1010.2
2016-May-15 16:33N 50°34' E 000°20'1210.1
2016-May-15 15:21N 50°39' E 000°38'  
Track history (hours):
 
Tides and Currents Weather Stations Pressure Air Temp Water Temp Dewpoint Dewpoint Depression Visibility Wind Speed Wind Dir Waves Ship Positions

Mississippi Star

Last reported at 2016-May-25 14:25 UTC. Time now 2016-May-25 14:54 UTC.
Position N 52°27' E 004°02'.

Length 128 m; draft 6 m.

Type: Ship. MMSI: 248621000.

Date/timePositionNaut miles runAvg speedWind from/ knotsBaromVisibWave heightAir tempDewpointWater temp
2016-May-25 14:25N 52°27' E 004°02'0 0.1
2016-May-25 13:23N 52°27' E 004°02'8 9.7
2016-May-25 12:32N 52°26' E 003°48'7612.1
2016-May-25 06:17N 51°33' E 002°20'1013.6
2016-May-25 05:33N 51°26' E 002°09'1313.1
2016-May-25 04:33N 51°14' E 002°02'1414.2
2016-May-25 03:34N 51°06' E 001°42'1514.5
2016-May-25 02:34N 50°55' E 001°28'1514.8
2016-May-25 01:32N 50°41' E 001°18'1514.1
2016-May-25 00:29N 50°31' E 001°01'2914.1
2016-May-24 22:25N 50°23' E 000°17'1214.6
2016-May-24 21:33N 50°19' W 000°02'3114.0
2016-May-24 19:21N 50°11' W 000°49'8110.3
2016-May-24 11:30N 49°49' W 002°50'1311.2
2016-May-24 10:22N 49°44' W 003°08'1011.9
2016-May-24 09:33N 49°39' W 003°21'2512.7
2016-May-24 07:33N 49°27' W 003°55'4113.6
2016-May-24 04:31N 49°06' W 004°50'1312.9
2016-May-24 03:30N 48°59' W 005°07'1212.4
2016-May-24 02:33N 48°53' W 005°22'1211.8
2016-May-24 01:33N 48°46' W 005°36'  
2016-May-21 17:33N 39°12' W 009°50'1111.3
2016-May-21 16:33N 39°01' W 009°51'1211.6
2016-May-21 15:33N 38°49' W 009°50'1211.7
2016-May-21 14:34N 38°37' W 009°49'1211.5
2016-May-21 13:33N 38°26' W 009°45'1111.3
2016-May-21 12:33N 38°15' W 009°41'1111.3
2016-May-21 11:33N 38°04' W 009°39'1111.3
2016-May-21 10:33N 37°53' W 009°36'1111.2
2016-May-21 09:33N 37°42' W 009°33'3811.2
2016-May-21 06:11N 37°05' W 009°22'1011.0
2016-May-21 05:16N 36°55' W 009°20'810.9
2016-May-21 04:33N 36°49' W 009°14'1610.8
2016-May-21 03:04N 36°43' W 008°55'101 4.5
2016-May-20 04:31N 37°10' W 006°54'0 0.0
2016-May-20 03:31N 37°10' W 006°54'0 0.0
2016-May-20 02:31N 37°10' W 006°54'0 0.0
2016-May-20 01:25N 37°10' W 006°54'92 7.5
2016-May-19 13:07N 36°25' W 008°34'9910.3
2016-May-19 03:32N 37°44' W 009°49'1211.8
2016-May-19 02:33N 37°55' W 009°53'1211.8
2016-May-19 01:33N 38°07' W 009°56'1211.8
2016-May-19 00:33N 38°18' W 009°60'1211.9
2016-May-18 23:33N 38°30' W 010°03'1212.2
2016-May-18 22:33N 38°42' W 010°06'1211.9
2016-May-18 21:33N 38°54' W 010°07'1212.0
2016-May-18 20:33N 39°06' W 010°07'1212.3
2016-May-18 19:33N 39°18' W 010°07'6112.1
2016-May-18 14:30N 40°19' W 010°07'56911.4
2016-May-16 12:28N 49°08' W 005°10'1210.8
2016-May-16 11:24N 49°13' W 004°55'2211.4
2016-May-16 09:30N 49°24' W 004°26'1312.0
2016-May-16 08:24N 49°31' W 004°09'1412.2
2016-May-16 07:18N 49°38' W 003°51'912.2
2016-May-16 06:33N 49°42' W 003°39'1211.8
2016-May-16 05:33N 49°48' W 003°23'1111.2
2016-May-16 04:33N 49°54' W 003°08'1110.8
2016-May-16 03:33N 49°59' W 002°54'4611.1
2016-May-15 23:24N 50°12' W 001°44'1313.0
2016-May-15 22:26N 50°15' W 001°25'1213.5
2016-May-15 21:33N 50°18' W 001°08'1313.3
2016-May-15 20:33N 50°22' W 000°47'1212.3
2016-May-15 19:33N 50°25' W 000°29'1211.5
2016-May-15 18:33N 50°28' W 000°11'1110.8
2016-May-15 17:33N 50°31' E 000°05'1010.2
2016-May-15 16:33N 50°34' E 000°20'1210.1
2016-May-15 15:21N 50°39' E 000°38'  

Dump ship's entire track history